createdAt,value
2023-05-04T05:01:09.591Z,0.50
2023-05-04T05:02:09.407Z,0.50
2023-05-04T05:03:09.483Z,0.50
2023-05-04T05:04:09.529Z,0.50
2023-05-04T05:05:09.484Z,0.50
2023-05-04T05:06:09.439Z,0.50
2023-05-04T05:07:09.412Z,0.34
2023-05-04T05:08:09.371Z,0.34
2023-05-04T05:09:09.354Z,0.34
2023-05-04T05:10:09.429Z,0.34
2023-05-04T05:11:09.351Z,0.34
2023-05-04T05:12:09.325Z,0.34
2023-05-04T05:13:09.432Z,0.34
2023-05-04T05:14:09.356Z,0.34
2023-05-04T05:15:09.359Z,0.34
2023-05-04T05:16:09.393Z,0.34
2023-05-04T05:17:09.352Z,0.34
2023-05-04T05:18:09.416Z,0.34
2023-05-04T05:19:09.300Z,0.34
2023-05-04T05:20:09.352Z,0.34
2023-05-04T05:21:09.340Z,0.34
2023-05-04T05:22:09.437Z,0.34
2023-05-04T05:23:09.464Z,0.34
2023-05-04T05:24:09.503Z,0.34
2023-05-04T05:25:09.519Z,0.34
2023-05-04T05:26:09.499Z,0.34
2023-05-04T05:27:09.536Z,0.34
2023-05-04T05:28:09.548Z,0.34
2023-05-04T05:29:09.691Z,0.34
2023-05-04T05:30:09.674Z,0.34
2023-05-04T05:31:09.692Z,0.34
2023-05-04T05:32:09.689Z,0.34
2023-05-04T05:33:09.690Z,0.34
2023-05-04T05:34:09.700Z,0.37
2023-05-04T05:35:09.782Z,0.46
2023-05-04T05:36:09.775Z,0.50
2023-05-04T05:37:09.767Z,0.50
2023-05-04T05:38:09.823Z,0.50
2023-05-04T05:39:09.834Z,0.50
2023-05-04T05:40:09.910Z,0.50
2023-05-04T05:41:09.947Z,0.50
2023-05-04T05:42:09.892Z,0.50
2023-05-04T05:43:09.926Z,0.49
2023-05-04T05:44:11.701Z,0.50
2023-05-04T05:45:09.952Z,0.50
2023-05-04T05:46:10.027Z,0.50
2023-05-04T05:47:09.954Z,0.50
2023-05-04T05:48:10.038Z,0.50
2023-05-04T05:49:09.908Z,0.50
2023-05-04T05:50:11.703Z,0.50
2023-05-04T05:51:09.977Z,0.50
2023-05-04T05:52:09.880Z,0.50
2023-05-04T05:53:09.909Z,0.49
2023-05-04T05:54:09.859Z,0.47
2023-05-04T05:55:09.888Z,0.47
2023-05-04T05:56:10.093Z,0.52
2023-05-04T05:57:09.858Z,0.52
2023-05-04T05:58:09.873Z,0.50
2023-05-04T05:59:09.817Z,0.50
2023-05-04T06:00:09.869Z,0.50
2023-05-04T06:01:09.849Z,0.50
2023-05-04T06:02:09.867Z,0.50
2023-05-04T06:03:10.842Z,0.52
2023-05-04T06:04:10.775Z,0.59
2023-05-04T06:05:09.959Z,0.62
2023-05-04T06:06:09.815Z,0.66
2023-05-04T06:07:09.884Z,0.68
2023-05-04T06:08:09.869Z,0.68
2023-05-04T06:09:09.780Z,0.66
2023-05-04T06:10:09.812Z,0.67
2023-05-04T06:11:09.777Z,0.66
2023-05-04T06:12:09.796Z,0.68
2023-05-04T06:13:09.856Z,0.69
2023-05-04T06:14:09.811Z,0.67
2023-05-04T06:15:09.888Z,0.68
2023-05-04T06:16:09.745Z,0.68
2023-05-04T06:17:09.756Z,0.69
2023-05-04T06:18:09.760Z,0.67
2023-05-04T06:19:09.697Z,0.68
2023-05-04T06:20:09.751Z,0.68
2023-05-04T06:21:09.789Z,0.68
2023-05-04T06:22:09.825Z,0.70
2023-05-04T06:23:09.734Z,0.72
2023-05-04T06:24:09.700Z,0.74
2023-05-04T06:25:09.703Z,0.75
2023-05-04T06:26:09.633Z,0.77
2023-05-04T06:27:09.684Z,0.76
2023-05-04T06:28:09.692Z,0.77
2023-05-04T06:29:09.640Z,0.78
2023-05-04T06:30:09.640Z,0.81
2023-05-04T06:31:09.631Z,0.81
2023-05-04T06:32:09.797Z,0.82
2023-05-04T06:33:09.651Z,0.83
2023-05-04T06:34:09.623Z,0.84
2023-05-04T06:35:09.683Z,0.82
2023-05-04T06:36:09.671Z,0.80
2023-05-04T06:37:09.672Z,0.83
2023-05-04T06:38:09.725Z,0.85
2023-05-04T06:39:10.204Z,0.84
2023-05-04T06:40:10.006Z,0.82
2023-05-04T06:41:09.792Z,0.84
2023-05-04T06:42:09.826Z,0.82
2023-05-04T06:43:09.970Z,0.82
2023-05-04T06:44:09.902Z,0.77
2023-05-04T06:45:09.934Z,0.78
2023-05-04T06:46:09.984Z,0.77
2023-05-04T06:47:09.912Z,0.77
2023-05-04T06:48:10.006Z,0.77
2023-05-04T06:49:09.964Z,0.76
2023-05-04T06:50:10.041Z,0.77
2023-05-04T06:51:09.983Z,0.79
2023-05-04T06:52:09.963Z,0.80
2023-05-04T06:53:09.986Z,0.86
2023-05-04T06:54:10.100Z,0.87
2023-05-04T06:55:10.056Z,0.85
2023-05-04T06:56:10.018Z,0.86
2023-05-04T06:57:10.040Z,0.89
2023-05-04T06:58:10.058Z,0.86
2023-05-04T06:59:10.044Z,0.86
2023-05-04T07:00:10.069Z,0.82
2023-05-04T07:01:10.122Z,0.86
2023-05-04T07:02:10.080Z,0.91
2023-05-04T07:03:10.147Z,0.91
2023-05-04T07:04:10.156Z,0.94
2023-05-04T07:05:10.165Z,0.97
2023-05-04T07:06:10.285Z,1.02
2023-05-04T07:07:10.299Z,0.98
2023-05-04T07:08:10.318Z,0.96
2023-05-04T07:09:10.331Z,0.95
2023-05-04T07:10:10.372Z,0.95
2023-05-04T07:11:10.424Z,0.94
2023-05-04T07:12:10.428Z,0.96
2023-05-04T07:13:10.538Z,0.97
2023-05-04T07:14:10.659Z,0.98
2023-05-04T07:15:10.545Z,0.98
2023-05-04T07:16:10.517Z,1.00
2023-05-04T07:17:10.520Z,1.00
2023-05-04T07:18:10.575Z,0.96
2023-05-04T07:19:10.842Z,0.94
2023-05-04T07:20:10.744Z,0.98
2023-05-04T07:21:26.872Z,0.93
2023-05-04T07:22:11.759Z,0.93
2023-05-04T07:23:10.751Z,0.86
2023-05-04T07:24:10.770Z,0.82
2023-05-04T07:25:10.727Z,0.82
2023-05-04T07:26:10.763Z,0.78
2023-05-04T07:27:10.730Z,0.80
2023-05-04T07:28:10.715Z,0.76
2023-05-04T07:29:10.866Z,0.74
2023-05-04T07:30:10.730Z,0.71
2023-05-04T07:31:10.799Z,0.69
2023-05-04T07:32:11.008Z,0.68
2023-05-04T07:33:10.895Z,0.66
2023-05-04T07:34:10.987Z,0.65
2023-05-04T07:35:11.012Z,0.66
2023-05-04T07:36:11.239Z,0.63
2023-05-04T07:37:11.107Z,0.61
2023-05-04T07:38:11.671Z,0.61
2023-05-04T07:39:11.227Z,0.63
2023-05-04T07:40:11.267Z,0.62
2023-05-04T07:41:11.636Z,0.61
2023-05-04T07:42:11.349Z,0.69
2023-05-04T07:43:11.505Z,0.63
2023-05-04T07:44:11.744Z,0.43
2023-05-04T07:45:11.427Z,0.44
2023-05-04T07:46:11.610Z,0.50
2023-05-04T07:47:11.765Z,0.50
2023-05-04T07:48:11.615Z,0.61
2023-05-04T07:49:11.551Z,0.64
2023-05-04T07:50:11.536Z,0.70
2023-05-04T07:51:11.528Z,0.63
2023-05-04T07:52:11.546Z,0.68
2023-05-04T07:53:11.558Z,0.76
2023-05-04T07:54:12.293Z,0.75
2023-05-04T07:55:13.254Z,0.79
2023-05-04T07:56:11.670Z,0.74
2023-05-04T07:57:11.717Z,0.69
2023-05-04T07:58:11.702Z,0.76
2023-05-04T07:59:12.745Z,0.78
2023-05-04T08:00:11.628Z,0.76
2023-05-04T08:01:11.665Z,0.58
2023-05-04T08:02:11.760Z,0.80
2023-05-04T08:03:11.723Z,0.89
2023-05-04T08:04:11.659Z,0.75
2023-05-04T08:05:11.660Z,0.93
2023-05-04T08:06:11.612Z,0.96
2023-05-04T08:07:11.711Z,0.98
2023-05-04T08:08:11.832Z,1.07
2023-05-04T08:09:11.809Z,1.05
2023-05-04T08:10:11.834Z,1.10
2023-05-04T08:11:20.034Z,1.01
2023-05-04T08:12:12.903Z,1.01
2023-05-04T08:13:11.966Z,1.02
2023-05-04T08:14:12.003Z,1.02
2023-05-04T08:15:11.902Z,1.06
2023-05-04T08:16:11.898Z,1.13
2023-05-04T08:17:11.808Z,0.97
2023-05-04T08:18:11.836Z,0.67
2023-05-04T08:19:11.803Z,0.54
2023-05-04T08:20:11.845Z,0.50
2023-05-04T08:21:11.829Z,0.50
2023-05-04T08:22:11.880Z,0.50
2023-05-04T08:23:11.847Z,0.50
2023-05-04T08:24:11.777Z,0.50
2023-05-04T08:25:11.804Z,0.52
2023-05-04T08:26:11.881Z,0.50
2023-05-04T08:27:11.924Z,0.44
2023-05-04T08:28:11.940Z,0.43
2023-05-04T08:29:11.971Z,0.47
2023-05-04T08:30:12.021Z,0.52
2023-05-04T08:31:12.108Z,0.50
2023-05-04T08:32:12.073Z,0.50
2023-05-04T08:33:12.104Z,0.50
2023-05-04T08:34:12.094Z,0.58
2023-05-04T08:35:12.107Z,0.75
2023-05-04T08:36:12.114Z,0.82
2023-05-04T08:37:12.188Z,0.75
2023-05-04T08:38:12.223Z,0.72
2023-05-04T08:39:12.386Z,0.75
2023-05-04T08:40:12.380Z,0.62
2023-05-04T08:41:13.467Z,0.79
2023-05-04T08:42:12.431Z,1.22
2023-05-04T08:43:15.229Z,1.54
2023-05-04T08:44:12.497Z,1.84
2023-05-04T08:45:12.380Z,2.05
2023-05-04T08:46:13.371Z,2.48
2023-05-04T08:47:12.515Z,2.76
2023-05-04T08:48:12.442Z,3.35
2023-05-04T08:49:12.509Z,3.66
2023-05-04T08:50:12.400Z,5.99
2023-05-04T08:51:12.370Z,5.72
2023-05-04T08:52:12.367Z,5.96
2023-05-04T08:53:12.456Z,6.25
2023-05-04T08:54:12.376Z,6.95
2023-05-04T08:55:12.354Z,7.68
2023-05-04T08:56:12.644Z,8.74
2023-05-04T08:57:12.377Z,9.74
2023-05-04T08:58:12.337Z,11.07
2023-05-04T08:59:12.647Z,11.99
2023-05-04T09:00:12.292Z,12.42
2023-05-04T09:01:12.396Z,13.10
2023-05-04T09:02:12.373Z,13.53
2023-05-04T09:03:12.512Z,13.83
2023-05-04T09:04:12.307Z,13.86
2023-05-04T09:05:12.340Z,14.76
2023-05-04T09:06:12.320Z,15.29
2023-05-04T09:07:12.336Z,16.24
2023-05-04T09:08:12.319Z,16.75
2023-05-04T09:09:12.288Z,16.90
2023-05-04T09:10:12.280Z,17.16
2023-05-04T09:11:12.318Z,17.63
2023-05-04T09:12:12.281Z,18.22
2023-05-04T09:13:12.287Z,18.78
2023-05-04T09:14:12.267Z,19.00
2023-05-04T09:15:12.179Z,19.02
2023-05-04T09:16:14.574Z,9.76
2023-05-04T09:17:13.240Z,3.36
2023-05-04T09:18:12.478Z,3.03
2023-05-04T09:19:12.493Z,5.33
2023-05-04T09:20:12.549Z,7.96
2023-05-04T09:21:12.913Z,12.29
2023-05-04T09:22:12.735Z,12.68
2023-05-04T09:23:12.970Z,12.73
2023-05-04T09:24:12.785Z,13.10
2023-05-04T09:25:12.803Z,12.48
2023-05-04T09:26:12.819Z,13.60
2023-05-04T09:27:12.888Z,8.76
2023-05-04T09:28:12.975Z,4.21
2023-05-04T09:29:13.018Z,2.07
2023-05-04T09:30:13.062Z,1.66
2023-05-04T09:31:13.173Z,1.21
2023-05-04T09:32:13.144Z,1.21
2023-05-04T09:33:13.120Z,1.56
2023-05-04T09:34:13.096Z,2.05
2023-05-04T09:35:25.335Z,3.15
2023-05-04T09:36:14.344Z,3.17
2023-05-04T09:37:13.390Z,3.10
2023-05-04T09:38:13.400Z,2.71
2023-05-04T09:39:13.484Z,2.53
2023-05-04T09:40:13.494Z,2.42
2023-05-04T09:41:13.577Z,2.10
2023-05-04T09:42:13.618Z,2.11
2023-05-04T09:43:13.669Z,2.26
2023-05-04T09:44:13.715Z,2.29
2023-05-04T09:45:13.793Z,1.71
2023-05-04T09:46:13.873Z,1.51
2023-05-04T09:47:13.970Z,1.44
2023-05-04T09:48:14.012Z,1.23
2023-05-04T09:49:14.121Z,0.80
2023-05-04T09:50:14.074Z,0.90
2023-05-04T09:51:14.092Z,0.72
2023-05-04T09:52:14.114Z,0.80
2023-05-04T09:53:14.114Z,0.92
2023-05-04T09:54:14.105Z,0.80
2023-05-04T09:55:14.137Z,0.49
2023-05-04T09:56:14.197Z,0.47
2023-05-04T09:57:14.220Z,0.58
2023-05-04T09:58:14.327Z,0.54
2023-05-04T09:59:14.319Z,0.69
2023-05-04T10:00:14.392Z,0.90
2023-05-04T10:01:14.448Z,0.90
2023-05-04T10:02:22.737Z,0.90
2023-05-04T10:03:15.474Z,0.90
2023-05-04T10:04:14.587Z,0.90
2023-05-04T10:05:17.262Z,0.89
2023-05-04T10:06:14.423Z,0.86
2023-05-04T10:07:14.442Z,0.90
2023-05-04T10:08:14.471Z,0.89
2023-05-04T10:09:14.568Z,0.91
2023-05-04T10:10:14.437Z,0.91
2023-05-04T10:11:15.301Z,0.94
2023-05-04T10:12:14.426Z,0.92
2023-05-04T10:13:14.541Z,0.78
2023-05-04T10:14:14.492Z,0.71
2023-05-04T10:15:14.390Z,0.67
2023-05-04T10:16:14.466Z,0.49
2023-05-04T10:17:15.246Z,0.51
2023-05-04T10:18:14.361Z,0.64
2023-05-04T10:19:14.367Z,0.80
2023-05-04T10:20:14.349Z,0.84
2023-05-04T10:21:14.396Z,1.15
2023-05-04T10:22:15.899Z,1.32
2023-05-04T10:23:14.689Z,1.45
2023-05-04T10:24:14.703Z,1.43
2023-05-04T10:25:14.452Z,1.35
2023-05-04T10:26:14.309Z,1.41
2023-05-04T10:27:14.548Z,1.52
2023-05-04T10:28:14.315Z,1.48
2023-05-04T10:29:14.316Z,1.38
2023-05-04T10:30:14.350Z,1.34
2023-05-04T10:31:14.293Z,1.28
2023-05-04T10:32:14.270Z,1.04
2023-05-04T10:33:14.257Z,1.05
2023-05-04T10:34:14.293Z,1.04
2023-05-04T10:35:14.290Z,0.83
2023-05-04T10:36:14.207Z,0.98
2023-05-04T10:37:14.192Z,0.97
2023-05-04T10:38:14.413Z,0.72
2023-05-04T10:39:14.293Z,0.92
2023-05-04T10:40:14.194Z,0.99
2023-05-04T10:41:14.180Z,0.98
2023-05-04T10:42:14.315Z,1.13
2023-05-04T10:43:14.246Z,1.05
2023-05-04T10:44:14.354Z,1.07
2023-05-04T10:45:14.753Z,1.09
2023-05-04T10:46:14.182Z,1.13
2023-05-04T10:47:14.142Z,1.05
2023-05-04T10:48:14.217Z,1.03
2023-05-04T10:49:14.208Z,0.90
2023-05-04T10:50:14.132Z,0.94
2023-05-04T10:51:14.132Z,0.93
2023-05-04T10:52:14.120Z,1.00
2023-05-04T10:53:14.743Z,1.08
2023-05-04T10:54:14.794Z,1.21
2023-05-04T10:55:14.117Z,1.24
2023-05-04T10:56:14.098Z,1.27
2023-05-04T10:57:14.376Z,1.19
2023-05-04T10:58:14.176Z,1.10
2023-05-04T10:59:14.864Z,1.09
2023-05-04T11:00:14.296Z,1.03
2023-05-04T11:01:14.278Z,1.11
2023-05-04T11:02:14.282Z,0.87
2023-05-04T11:03:14.473Z,0.96
2023-05-04T11:04:14.299Z,0.89
2023-05-04T11:05:14.205Z,0.98
2023-05-04T11:07:33.335Z,0.50
2023-05-04T11:08:33.417Z,0.50
2023-05-04T11:09:33.294Z,0.50
2023-05-04T11:10:33.318Z,0.50
2023-05-04T11:11:33.302Z,0.50
2023-05-04T11:12:33.344Z,0.50
2023-05-04T11:13:33.280Z,0.78
2023-05-04T11:14:33.288Z,1.06
2023-05-04T11:15:33.302Z,1.30
2023-05-04T11:16:33.286Z,1.59
2023-05-04T11:17:33.344Z,1.85
2023-05-04T11:18:33.241Z,1.96
2023-05-04T11:19:33.250Z,2.08
2023-05-04T11:20:33.254Z,1.83
2023-05-04T11:21:33.284Z,1.41
2023-05-04T11:22:33.261Z,1.94
2023-05-04T11:23:33.205Z,2.40
2023-05-04T11:24:33.311Z,2.61
2023-05-04T11:25:33.196Z,2.54
2023-05-04T11:26:33.225Z,2.47
2023-05-04T11:27:33.178Z,2.43
2023-05-04T11:28:33.208Z,2.62
2023-05-04T11:29:33.223Z,2.00
2023-05-04T11:30:33.195Z,1.82
2023-05-04T11:31:33.189Z,2.18
2023-05-04T11:32:33.257Z,2.32
2023-05-04T11:33:33.313Z,2.37
2023-05-04T11:34:33.365Z,2.56
2023-05-04T11:35:33.415Z,1.94
2023-05-04T11:36:33.478Z,2.04
2023-05-04T11:37:33.532Z,2.32
2023-05-04T11:38:33.595Z,2.62
2023-05-04T11:39:33.629Z,2.62
2023-05-04T11:40:33.768Z,2.42
2023-05-04T11:41:33.754Z,2.68
2023-05-04T11:42:33.794Z,1.38
2023-05-04T11:43:33.846Z,2.09
2023-05-04T11:44:33.889Z,2.15
2023-05-04T11:45:33.923Z,2.13
2023-05-04T11:46:33.983Z,2.33
2023-05-04T11:47:34.065Z,2.49
2023-05-04T11:48:34.092Z,2.46
2023-05-04T11:49:34.142Z,2.75
2023-05-04T11:50:34.182Z,2.31
2023-05-04T11:51:34.178Z,2.44
2023-05-04T11:52:34.242Z,2.25
2023-05-04T11:53:34.318Z,2.25
2023-05-04T11:54:34.426Z,2.02
2023-05-04T11:55:34.435Z,1.83
2023-05-04T11:56:34.421Z,1.84
2023-05-04T11:57:34.493Z,1.82
2023-05-04T11:58:34.535Z,1.78
2023-05-04T11:59:34.578Z,1.93
2023-05-04T12:00:34.589Z,0.66
2023-05-04T12:01:34.685Z,0.45
2023-05-04T12:02:34.774Z,0.47
2023-05-04T12:03:43.879Z,0.77
2023-05-04T12:04:35.758Z,0.78
2023-05-04T12:05:34.768Z,0.86
2023-05-04T12:06:34.734Z,1.05
2023-05-04T12:07:34.721Z,1.40
2023-05-04T12:08:34.771Z,2.03
2023-05-04T12:09:34.758Z,1.77
2023-05-04T12:10:34.707Z,1.21
2023-05-04T12:11:34.760Z,0.77
2023-05-04T12:12:34.741Z,0.95
2023-05-04T12:13:34.688Z,1.09
2023-05-04T12:14:34.732Z,1.06
2023-05-04T12:15:34.749Z,1.67
2023-05-04T12:16:34.905Z,1.82
2023-05-04T12:17:34.954Z,1.27
2023-05-04T12:18:34.940Z,1.96
2023-05-04T12:19:34.980Z,1.00
2023-05-04T12:20:35.053Z,1.34
2023-05-04T12:21:35.077Z,1.91
2023-05-04T12:22:35.164Z,1.75
2023-05-04T12:23:35.174Z,1.85
2023-05-04T12:24:35.180Z,1.85
2023-05-04T12:25:39.116Z,2.04
2023-05-04T12:26:36.258Z,2.04
2023-05-04T12:27:35.209Z,1.68
2023-05-04T12:28:35.242Z,0.78
2023-05-04T12:29:35.191Z,0.89
2023-05-04T12:30:35.182Z,0.79
2023-05-04T12:31:35.204Z,1.08
2023-05-04T12:32:35.271Z,1.34
2023-05-04T12:33:35.188Z,1.25
2023-05-04T12:34:35.158Z,1.40
2023-05-04T12:35:35.168Z,1.25
2023-05-04T12:36:35.135Z,0.87
2023-05-04T12:37:35.147Z,0.95
2023-05-04T12:38:35.153Z,1.05
2023-05-04T12:39:35.156Z,1.06
2023-05-04T12:40:35.217Z,1.18
2023-05-04T12:41:35.243Z,1.25
2023-05-04T12:42:35.248Z,1.23
2023-05-04T12:43:35.282Z,1.31
2023-05-04T12:44:35.304Z,1.18
2023-05-04T12:45:35.357Z,1.11
2023-05-04T12:46:35.499Z,1.15
2023-05-04T12:47:35.396Z,1.22
2023-05-04T12:48:35.429Z,1.25
2023-05-04T12:49:35.422Z,1.33
2023-05-04T12:50:35.461Z,1.34
2023-05-04T12:51:35.550Z,1.48
2023-05-04T12:52:35.489Z,1.42
2023-05-04T12:53:35.509Z,1.50
2023-05-04T12:54:35.547Z,1.46
2023-05-04T12:55:35.555Z,1.63
2023-05-04T12:56:35.572Z,1.50
2023-05-04T12:57:35.598Z,1.13
2023-05-04T12:58:35.629Z,0.95
2023-05-04T12:59:35.640Z,0.90
2023-05-04T13:00:35.742Z,0.84
2023-05-04T13:01:35.737Z,0.67
2023-05-04T13:02:35.818Z,0.89
2023-05-04T13:03:35.825Z,0.85
2023-05-04T13:04:35.757Z,1.02
2023-05-04T13:05:35.766Z,1.16
2023-05-04T13:06:35.843Z,0.72
2023-05-04T13:07:35.824Z,0.61
2023-05-04T13:08:35.824Z,0.88
2023-05-04T13:09:35.860Z,1.33
2023-05-04T13:10:35.876Z,1.06
2023-05-04T13:11:35.893Z,1.18
2023-05-04T13:12:35.916Z,1.55
2023-05-04T13:13:35.894Z,2.03
2023-05-04T13:14:39.510Z,2.16
2023-05-04T13:15:35.910Z,2.17
2023-05-04T13:16:35.936Z,2.27
2023-05-04T13:17:35.933Z,2.38
2023-05-04T13:18:35.860Z,2.32
2023-05-04T13:19:35.869Z,1.68
2023-05-04T13:20:35.875Z,1.88
2023-05-04T13:21:35.875Z,2.25
2023-05-04T13:22:35.853Z,2.82
2023-05-04T13:23:35.813Z,2.85
2023-05-04T13:24:35.809Z,2.77
2023-05-04T13:25:35.822Z,2.90
2023-05-04T13:26:35.819Z,2.06
2023-05-04T13:27:35.831Z,2.77
2023-05-04T13:28:37.211Z,3.07
2023-05-04T13:29:35.802Z,1.20
2023-05-04T13:30:35.817Z,1.32
2023-05-04T13:31:35.787Z,1.65
2023-05-04T13:32:35.820Z,1.76
2023-05-04T13:33:35.774Z,1.83
2023-05-04T13:34:35.794Z,1.40
2023-05-04T13:35:35.740Z,1.75
2023-05-04T13:36:35.772Z,1.86
2023-05-04T13:37:35.739Z,1.69
2023-05-04T13:38:35.756Z,1.71
2023-05-04T13:39:35.713Z,1.88
2023-05-04T13:40:35.713Z,2.05
2023-05-04T13:41:35.729Z,2.51
2023-05-04T13:42:37.204Z,2.81
2023-05-04T13:43:35.715Z,2.83
2023-05-04T13:44:35.712Z,3.01
2023-05-04T13:45:35.694Z,3.30
2023-05-04T13:46:35.728Z,3.82
2023-05-04T13:47:35.702Z,4.11
2023-05-04T13:48:35.695Z,4.12
2023-05-04T13:49:35.672Z,4.30
2023-05-04T13:50:35.623Z,4.37
2023-05-04T13:51:35.646Z,4.38
2023-05-04T13:52:35.634Z,4.42
2023-05-04T13:53:35.657Z,4.43
2023-05-04T13:54:35.700Z,4.41
2023-05-04T13:55:35.724Z,4.41
2023-05-04T13:56:35.781Z,4.38
2023-05-04T13:57:35.808Z,4.13
2023-05-04T13:58:35.818Z,4.05
2023-05-04T13:59:35.896Z,4.10
2023-05-04T14:00:35.974Z,4.29
2023-05-04T14:01:35.997Z,4.25
2023-05-04T14:02:36.139Z,4.25
2023-05-04T14:03:36.059Z,4.81
2023-05-04T14:04:38.806Z,4.54
2023-05-04T14:05:36.117Z,4.60
2023-05-04T14:06:36.117Z,4.84
2023-05-04T14:07:36.063Z,4.98
2023-05-04T14:08:36.073Z,5.00
2023-05-04T14:09:36.078Z,5.14
2023-05-04T14:10:37.462Z,5.71
2023-05-04T14:11:36.025Z,5.46
2023-05-04T14:12:36.058Z,6.07
2023-05-04T14:13:36.044Z,6.51
2023-05-04T14:14:36.006Z,7.10
2023-05-04T14:15:36.047Z,7.77
2023-05-04T14:16:37.442Z,7.81
2023-05-04T14:17:36.036Z,8.51
2023-05-04T14:18:36.003Z,9.33
2023-05-04T14:19:35.980Z,9.86
2023-05-04T14:20:35.968Z,10.21
2023-05-04T14:21:36.036Z,10.63
2023-05-04T14:22:38.014Z,11.04
2023-05-04T14:23:35.970Z,11.40
2023-05-04T14:24:35.964Z,12.14
2023-05-04T14:25:35.972Z,11.88
2023-05-04T14:26:35.965Z,12.44
2023-05-04T14:27:36.085Z,12.96
2023-05-04T14:28:36.038Z,13.34
2023-05-04T14:29:36.028Z,13.43
2023-05-04T14:30:36.031Z,14.40
2023-05-04T14:31:36.178Z,14.47
2023-05-04T14:32:36.233Z,14.94
2023-05-04T14:33:36.243Z,15.16
2023-05-04T14:34:36.176Z,15.66
2023-05-04T14:35:36.178Z,15.64
2023-05-04T14:36:36.229Z,16.19
2023-05-04T14:37:36.203Z,16.74
2023-05-04T14:38:36.358Z,16.95
2023-05-04T14:39:36.269Z,17.38
2023-05-04T14:40:36.276Z,17.43
2023-05-04T14:41:36.328Z,18.46
2023-05-04T14:42:36.344Z,19.21
2023-05-04T14:43:36.371Z,19.07
2023-05-04T14:44:36.384Z,19.51
2023-05-04T14:45:36.393Z,19.77
2023-05-04T14:46:36.457Z,20.33
2023-05-04T14:47:36.564Z,21.05
2023-05-04T14:48:36.440Z,20.83
2023-05-04T14:49:37.765Z,21.10
2023-05-04T14:50:36.477Z,21.55
2023-05-04T14:51:36.509Z,21.75
2023-05-04T14:52:36.552Z,22.18
2023-05-04T14:53:38.581Z,22.39
2023-05-04T14:54:36.513Z,22.29
2023-05-04T14:55:36.507Z,22.63
2023-05-04T14:56:36.525Z,22.75
2023-05-04T14:57:36.527Z,23.25
2023-05-04T14:58:36.579Z,23.43
2023-05-04T14:59:36.455Z,23.41
2023-05-04T15:00:36.487Z,23.79
2023-05-04T15:01:36.501Z,23.80
2023-05-04T15:02:36.541Z,24.51
2023-05-04T15:03:36.547Z,24.29
2023-05-04T15:04:36.437Z,24.33
2023-05-04T15:05:36.478Z,23.90
2023-05-04T15:06:36.474Z,24.21
2023-05-04T15:07:36.426Z,23.86
2023-05-04T15:08:36.448Z,24.31
2023-05-04T15:09:36.393Z,24.40
2023-05-04T15:10:36.421Z,24.55
2023-05-04T15:11:36.399Z,24.93
2023-05-04T15:12:36.483Z,25.16
2023-05-04T15:13:36.444Z,24.81
2023-05-04T15:14:36.414Z,24.97
2023-05-04T15:15:36.384Z,24.81
2023-05-04T15:16:36.467Z,25.51
2023-05-04T15:17:36.394Z,24.33
2023-05-04T15:18:36.400Z,24.72
2023-05-04T15:19:36.349Z,24.47
2023-05-04T15:20:36.336Z,24.96
2023-05-04T15:21:36.335Z,24.89
2023-05-04T15:22:36.343Z,24.48
2023-05-04T15:23:36.334Z,24.60
2023-05-04T15:24:36.308Z,24.63
2023-05-04T15:25:36.335Z,24.25
2023-05-04T15:26:36.324Z,24.45
2023-05-04T15:27:36.305Z,25.12
2023-05-04T15:28:36.356Z,24.44
2023-05-04T15:29:36.288Z,24.05
2023-05-04T15:30:36.265Z,23.88
2023-05-04T15:31:36.281Z,24.38
2023-05-04T15:32:36.274Z,24.25
2023-05-04T15:33:36.237Z,24.34
2023-05-04T15:34:36.217Z,23.77
2023-05-04T15:35:36.239Z,24.05
2023-05-04T15:36:36.231Z,23.58
2023-05-04T15:37:36.218Z,24.03
2023-05-04T15:38:36.228Z,23.83
2023-05-04T15:39:36.227Z,24.34
2023-05-04T15:40:36.230Z,23.56
2023-05-04T15:41:36.199Z,23.82
2023-05-04T15:42:36.182Z,23.50
2023-05-04T15:43:36.184Z,24.04
2023-05-04T15:44:36.175Z,23.55
2023-05-04T15:45:36.157Z,23.07
2023-05-04T15:46:36.144Z,23.48
2023-05-04T15:47:36.163Z,23.32
2023-05-04T15:48:36.172Z,23.23
2023-05-04T15:49:36.109Z,23.58
2023-05-04T15:50:36.157Z,22.99
2023-05-04T15:51:36.125Z,23.18
2023-05-04T15:52:36.093Z,22.51
2023-05-04T15:53:36.116Z,22.36
2023-05-04T15:54:36.132Z,22.04
2023-05-04T15:55:36.102Z,22.66
2023-05-04T15:56:36.082Z,22.52
2023-05-04T15:57:36.153Z,22.50
2023-05-04T15:58:36.138Z,22.06
2023-05-04T15:59:36.190Z,22.38
2023-05-04T16:00:36.207Z,21.53
2023-05-04T16:01:36.331Z,21.78
2023-05-04T16:02:36.377Z,21.80
2023-05-04T16:03:36.411Z,21.87
2023-05-04T16:04:36.402Z,21.65
2023-05-04T16:05:36.444Z,21.11
2023-05-04T16:06:36.464Z,21.09
2023-05-04T16:07:36.535Z,21.34
2023-05-04T16:08:36.574Z,21.11
2023-05-04T16:09:36.611Z,21.21
2023-05-04T16:10:36.662Z,21.09
2023-05-04T16:11:36.701Z,21.19
2023-05-04T16:12:36.784Z,20.58
2023-05-04T16:13:36.798Z,20.96
2023-05-04T16:14:36.861Z,20.79
2023-05-04T16:15:36.905Z,20.89
2023-05-04T16:16:36.968Z,20.79
2023-05-04T16:17:36.989Z,20.13
2023-05-04T16:18:37.065Z,20.11
2023-05-04T16:19:37.256Z,20.69
2023-05-04T16:20:37.136Z,20.48
2023-05-04T16:21:37.182Z,20.31
2023-05-04T16:22:37.257Z,20.47
2023-05-04T16:23:37.256Z,19.37
2023-05-04T16:24:37.362Z,20.36
2023-05-04T16:25:37.331Z,19.97
2023-05-04T16:26:37.395Z,19.98
2023-05-04T16:27:37.463Z,19.69
2023-05-04T16:28:37.527Z,19.55
2023-05-04T16:29:37.536Z,19.74
2023-05-04T16:30:37.680Z,19.95
2023-05-04T16:31:37.724Z,19.48
2023-05-04T16:32:37.836Z,18.96
2023-05-04T16:33:37.746Z,19.33
2023-05-04T16:34:37.781Z,19.45
2023-05-04T16:35:37.912Z,19.20
2023-05-04T16:36:37.848Z,19.44
2023-05-04T16:37:37.926Z,18.99
2023-05-04T16:38:38.034Z,18.92
2023-05-04T16:39:38.015Z,18.79
2023-05-04T16:40:38.022Z,18.41
2023-05-04T16:41:38.057Z,18.64
2023-05-04T16:42:38.144Z,18.41
2023-05-04T16:43:38.164Z,18.65
2023-05-04T16:44:38.218Z,18.57
2023-05-04T16:45:38.293Z,18.34
2023-05-04T16:46:38.401Z,18.35
2023-05-04T16:47:38.382Z,18.08
2023-05-04T16:48:38.385Z,18.21
2023-05-04T16:49:38.416Z,18.08
2023-05-04T16:50:38.498Z,17.95
2023-05-04T16:51:38.506Z,17.94
2023-05-04T16:52:38.611Z,17.67
2023-05-04T16:53:38.639Z,17.48
2023-05-04T16:54:38.675Z,17.69
2023-05-04T16:55:38.718Z,17.19
2023-05-04T16:56:38.749Z,17.70
2023-05-04T16:57:38.825Z,17.72
2023-05-04T16:58:38.878Z,17.21
2023-05-04T16:59:38.896Z,17.95
2023-05-04T17:00:38.928Z,17.53
